createdAt,value
2023-01-20T00:02:41.934Z,9.23
2023-01-20T00:07:44.125Z,8.05
2023-01-20T00:12:46.213Z,8.80
2023-01-20T00:17:48.366Z,7.57
2023-01-20T00:22:51.053Z,8.85
2023-01-20T00:27:53.356Z,10.80
2023-01-20T00:32:55.729Z,8.85
2023-01-20T00:37:57.804Z,11.05
2023-01-20T00:42:59.915Z,9.57
2023-01-20T00:48:02.004Z,9.93
2023-01-20T00:53:04.105Z,10.40
2023-01-20T00:58:06.330Z,8.25
2023-01-20T01:03:10.321Z,10.85
2023-01-20T01:08:12.902Z,9.02
2023-01-20T01:13:15.030Z,10.13
2023-01-20T01:18:32.357Z,9.82
2023-01-20T01:23:34.397Z,7.90
2023-01-20T01:28:36.509Z,7.07
2023-01-20T01:33:38.808Z,8.48
2023-01-20T01:38:40.991Z,8.38
2023-01-20T01:44:04.930Z,10.23
2023-01-20T01:49:17.148Z,7.50
2023-01-20T01:54:22.839Z,6.22
2023-01-20T02:04:28.422Z,8.25
2023-01-20T02:09:31.187Z,5.70
2023-01-20T02:14:47.223Z,7.00
2023-01-20T02:19:55.003Z,7.78
2023-01-20T02:25:12.175Z,7.57
2023-01-20T02:30:36.126Z,7.20
2023-01-20T02:35:49.687Z,6.25
2023-01-20T02:41:23.415Z,6.80
2023-01-20T02:46:37.918Z,6.80
2023-01-20T02:51:51.508Z,8.38
2023-01-20T02:56:55.352Z,7.05
2023-01-20T03:02:05.050Z,6.95
2023-01-20T03:07:09.854Z,5.80
2023-01-20T03:12:29.231Z,8.93
2023-01-20T03:17:33.496Z,6.57
2023-01-20T03:22:35.585Z,6.93
2023-01-20T03:27:37.663Z,7.03
2023-01-20T03:32:42.125Z,5.35
2023-01-20T03:37:45.352Z,8.27
2023-01-20T03:43:12.015Z,5.57
2023-01-20T03:48:28.215Z,5.60
2023-01-20T03:53:45.909Z,5.63
2023-01-20T03:58:52.334Z,8.35
2023-01-20T04:03:55.990Z,6.07
2023-01-20T04:09:05.967Z,5.38
2023-01-20T04:14:11.234Z,7.22
2023-01-20T04:19:13.404Z,5.68
2023-01-20T04:24:23.788Z,5.10
2023-01-20T04:29:25.921Z,5.80
2023-01-20T04:34:28.027Z,5.60
2023-01-20T04:39:30.176Z,5.88
2023-01-20T04:44:32.320Z,3.75
2023-01-20T04:49:35.556Z,5.20
2023-01-20T04:54:37.735Z,4.85
2023-01-20T04:59:39.864Z,4.35
2023-01-20T05:04:42.029Z,4.70
2023-01-20T05:09:44.134Z,3.95
2023-01-20T05:14:46.337Z,6.30
2023-01-20T05:19:48.406Z,5.65
2023-01-20T05:24:50.477Z,4.95
2023-01-20T05:29:52.578Z,3.75
2023-01-20T05:34:54.776Z,4.03
2023-01-20T05:39:56.938Z,3.95
2023-01-20T05:44:59.193Z,5.53
2023-01-20T05:50:01.248Z,6.07
2023-01-20T05:55:03.517Z,7.30
2023-01-20T06:00:08.699Z,6.75
2023-01-20T06:05:11.022Z,8.40
2023-01-20T06:10:13.108Z,6.65
2023-01-20T06:15:15.568Z,5.40
2023-01-20T06:20:18.616Z,3.88
2023-01-20T06:25:20.670Z,6.00
2023-01-20T06:30:22.777Z,5.13
2023-01-20T06:35:25.221Z,6.93
2023-01-20T06:40:27.341Z,15.63
2023-01-20T06:45:29.691Z,17.13
2023-01-20T06:50:31.812Z,14.70
2023-01-20T06:55:34.255Z,9.50
2023-01-20T07:00:36.447Z,12.05
2023-01-20T07:05:38.663Z,10.32
2023-01-20T07:10:40.947Z,8.68
2023-01-20T07:15:43.051Z,6.07
2023-01-20T07:20:45.131Z,5.88
2023-01-20T07:25:47.199Z,6.70
2023-01-20T07:30:49.310Z,4.88
2023-01-20T07:35:53.344Z,4.70
2023-01-20T07:40:59.698Z,6.32
2023-01-20T07:46:03.894Z,6.40
2023-01-20T07:51:08.457Z,6.28
2023-01-20T07:56:13.131Z,5.53
2023-01-20T08:01:20.724Z,5.53
2023-01-20T08:06:25.405Z,54.97
2023-01-20T08:11:27.778Z,73.37
2023-01-20T08:16:29.940Z,62.00
2023-01-20T08:21:33.346Z,39.85
2023-01-20T08:26:35.482Z,22.98
2023-01-20T08:31:38.519Z,10.88
2023-01-20T08:36:41.636Z,8.15
2023-01-20T08:41:45.285Z,9.77
2023-01-20T08:46:47.443Z,7.57
2023-01-20T08:51:49.742Z,5.50
2023-01-20T08:56:53.068Z,4.50
2023-01-20T09:01:55.179Z,4.43
2023-01-20T09:06:57.354Z,4.50
2023-01-20T09:11:59.616Z,3.65
2023-01-20T09:17:02.845Z,5.85
2023-01-20T09:22:05.020Z,6.45
2023-01-20T09:27:07.131Z,5.07
2023-01-20T09:32:10.923Z,4.88
2023-01-20T09:37:31.587Z,5.50
2023-01-20T09:43:24.237Z,4.07
2023-01-20T09:48:50.687Z,6.32
2023-01-20T09:54:03.024Z,3.80
2023-01-20T09:59:15.198Z,4.22
2023-01-20T10:04:32.671Z,4.80
2023-01-20T10:10:00.175Z,3.17
2023-01-20T10:15:09.023Z,7.70
2023-01-20T10:20:56.901Z,3.63
2023-01-20T10:26:04.804Z,3.83
2023-01-20T10:31:27.457Z,5.35
2023-01-20T10:36:31.203Z,4.68
2023-01-20T10:41:39.422Z,4.15
2023-01-20T10:46:50.263Z,5.93
2023-01-20T10:52:00.050Z,3.60
2023-01-20T10:57:04.763Z,4.32
2023-01-20T11:02:26.547Z,3.75
2023-01-20T11:07:32.636Z,4.68
2023-01-20T11:12:39.996Z,5.30
2023-01-20T11:17:42.233Z,11.15
2023-01-20T11:22:47.657Z,15.38
2023-01-20T11:27:50.760Z,21.83
2023-01-20T11:33:18.513Z,15.45
2023-01-20T11:38:25.782Z,13.55
2023-01-20T11:43:38.187Z,15.82
2023-01-20T11:48:40.788Z,16.00
2023-01-20T11:53:44.374Z,12.15
2023-01-20T11:58:59.806Z,8.35
2023-01-20T12:04:22.176Z,8.88
2023-01-20T12:09:38.473Z,7.32
2023-01-20T12:14:57.793Z,6.82
2023-01-20T12:20:18.342Z,7.25
2023-01-20T12:25:22.379Z,6.25
2023-01-20T12:30:33.323Z,8.43
2023-01-20T12:35:46.939Z,6.40
2023-01-20T12:40:52.328Z,8.30
2023-01-20T12:46:24.798Z,4.03
2023-01-20T12:51:54.310Z,4.63
2023-01-20T12:57:15.857Z,3.78
2023-01-20T13:02:27.012Z,6.18
2023-01-20T13:07:59.406Z,3.67
2023-01-20T13:13:33.450Z,9.98
2023-01-20T13:18:53.308Z,9.07
2023-01-20T13:23:55.796Z,9.35
2023-01-20T13:29:00.436Z,5.93
2023-01-20T13:34:22.793Z,6.80
2023-01-20T13:39:48.312Z,6.05
2023-01-20T13:45:13.433Z,4.00
2023-01-20T13:50:27.539Z,4.30
2023-01-20T13:55:41.575Z,2.42
2023-01-20T14:00:45.059Z,1.67
2023-01-20T14:05:55.442Z,2.33
2023-01-20T14:11:14.872Z,2.97
2023-01-20T14:16:29.067Z,2.08
2023-01-20T14:21:40.393Z,2.65
2023-01-20T14:26:42.486Z,1.48
2023-01-20T14:31:46.307Z,1.10
2023-01-20T14:36:48.681Z,1.80
2023-01-20T14:42:01.479Z,2.08
2023-01-20T14:47:04.114Z,2.45
2023-01-20T14:52:08.597Z,1.35
2023-01-20T14:57:20.783Z,3.40
2023-01-20T15:02:44.631Z,2.38
2023-01-20T15:07:46.877Z,4.15
2023-01-20T15:12:48.956Z,2.38
2023-01-20T15:18:23.211Z,1.85
2023-01-20T15:23:34.756Z,3.38
2023-01-20T15:28:42.732Z,1.73
2023-01-20T15:33:44.844Z,0.82
2023-01-20T15:38:47.046Z,1.45
2023-01-20T15:43:51.424Z,1.50
2023-01-20T15:48:53.595Z,1.95
2023-01-20T15:53:55.808Z,0.98
2023-01-20T15:58:58.058Z,0.70
2023-01-20T16:04:00.233Z,1.08
2023-01-20T16:09:13.275Z,1.10
2023-01-20T16:14:15.543Z,0.80
2023-01-20T16:19:17.671Z,1.73
2023-01-20T16:24:19.814Z,4.00
2023-01-20T16:29:21.935Z,3.38
2023-01-20T16:34:24.169Z,4.43
2023-01-20T16:39:26.352Z,2.42
2023-01-20T16:44:28.503Z,2.30
2023-01-20T16:49:30.637Z,3.05
2023-01-20T16:54:32.888Z,4.53
2023-01-20T16:59:35.314Z,5.28
2023-01-20T17:04:37.950Z,4.60
2023-01-20T17:09:40.070Z,8.45
2023-01-20T17:14:42.235Z,17.92
2023-01-20T17:19:44.332Z,20.27
2023-01-20T17:24:46.588Z,18.08
2023-01-20T17:29:48.659Z,17.77
2023-01-20T17:34:50.765Z,22.77
2023-01-20T17:39:52.836Z,27.67
2023-01-20T17:44:58.406Z,24.90
2023-01-20T17:50:00.559Z,19.20
2023-01-20T17:55:06.144Z,20.85
2023-01-20T18:00:09.675Z,17.33
2023-01-20T18:05:12.971Z,21.88
2023-01-20T18:10:15.417Z,23.58
2023-01-20T18:15:18.275Z,27.52
2023-01-20T18:20:20.623Z,24.95
2023-01-20T18:25:22.862Z,16.80
2023-01-20T18:30:24.910Z,13.27
2023-01-20T18:35:27.052Z,13.38
2023-01-20T18:40:29.159Z,10.73
2023-01-20T18:45:31.211Z,14.02
2023-01-20T18:50:33.260Z,13.57
2023-01-20T18:55:35.395Z,14.32
2023-01-20T19:00:37.857Z,11.25
2023-01-20T19:05:40.142Z,11.88
2023-01-20T19:10:42.391Z,16.15
2023-01-20T19:15:44.467Z,18.45
2023-01-20T19:20:46.533Z,22.55
2023-01-20T19:25:58.855Z,22.67
2023-01-20T19:31:12.663Z,16.73
2023-01-20T19:36:17.262Z,15.75
2023-01-20T19:41:27.768Z,17.92
2023-01-20T19:46:33.168Z,17.20
2023-01-20T19:51:36.523Z,17.27
2023-01-20T19:56:40.012Z,22.67
2023-01-20T20:01:42.265Z,22.15
2023-01-20T20:06:47.719Z,23.60
2023-01-20T20:11:50.746Z,26.10
2023-01-20T20:16:52.850Z,25.67
2023-01-20T20:21:56.379Z,27.08
2023-01-20T20:26:58.662Z,23.40
2023-01-20T20:32:01.064Z,19.95
2023-01-20T20:37:03.530Z,15.43
2023-01-20T20:42:05.595Z,12.23
2023-01-20T20:47:07.716Z,12.32
2023-01-20T20:52:09.904Z,13.60
2023-01-20T20:57:12.265Z,13.25
2023-01-20T21:02:15.025Z,16.40
2023-01-20T21:07:17.246Z,14.10
2023-01-20T21:12:19.320Z,16.80
2023-01-20T21:17:21.502Z,17.67
2023-01-20T21:22:23.624Z,18.20
2023-01-20T21:27:25.836Z,14.30
2023-01-20T21:32:28.120Z,13.60
2023-01-20T21:37:30.170Z,13.25
2023-01-20T21:42:32.888Z,14.65
2023-01-20T21:47:35.090Z,16.80
2023-01-20T21:52:44.194Z,19.15
2023-01-20T21:57:48.922Z,17.42
2023-01-20T22:02:52.238Z,18.40
2023-01-20T22:07:54.300Z,17.95
2023-01-20T22:12:56.435Z,22.40
2023-01-20T22:17:59.234Z,22.85
2023-01-20T22:23:01.344Z,21.50
2023-01-20T22:28:03.638Z,17.98
2023-01-20T22:33:05.697Z,18.50
2023-01-20T22:38:07.934Z,21.95
2023-01-20T22:43:10.012Z,21.20
2023-01-20T22:48:12.355Z,23.25
2023-01-20T22:53:14.936Z,31.02
2023-01-20T22:58:18.188Z,15.90
2023-01-20T23:03:20.425Z,16.40
2023-01-20T23:08:24.078Z,15.07
2023-01-20T23:13:27.460Z,12.35
2023-01-20T23:18:29.999Z,13.85
2023-01-20T23:23:32.243Z,14.57
2023-01-20T23:28:34.851Z,13.35
2023-01-20T23:33:37.417Z,11.52
2023-01-20T23:38:39.590Z,14.13
2023-01-20T23:43:42.293Z,13.45
2023-01-20T23:48:47.314Z,12.55
2023-01-20T23:53:49.433Z,12.25
2023-01-20T23:58:52.357Z,10.57
